Portada
METAR-TAF:

METAR-TAF

Aeroports :

Denpasar, Indonèsia

latitud: 08-44-53S, longitud: 115-10-03E, altitud: 4 m

Observació

L'informe es va fer fa 35 minuts, a les 21:00 UTC
Vent 2 kt del Oest/Nord-Oest
Temperatura 27°C
Humitat 89%
Pressió 1008 hPa
Visibilitat 10 km o més
Escasses núvols a una alçada de 1700 ft

METAR: WADD 112100Z 29002KT 9999 FEW017 27/25 Q1008 NOSIG

Hora: 04:35 (21:35 UTC)

Pronòstic

L'informe es va fer fa 4 hores i 35 minuts, a les 17:00 UTC
Pronòstic vàlid del 11 a les 18 UTC al 12 a les 18 UTC
Vent 5 kt del Nord/Nord-Oest
Visibilitat 10 km o més
Núvols disperses a una alçada de 1700 ft
Evolucionant progressivament
l' 12 a les 03 UTC al 12 a les 05 UTC
Vent 5 kt amb direcció variable
Temporalment
l' 12 a les 06 UTC al 12 a les 10 UTC
Escasses núvols a una alçada de 1400 ft, Cumulonimbus.
Núvols disperses a una alçada de 1500 ft

TAF: WADD 111700Z 1118/1218 33005KT 9999 SCT017 BECMG 1203/1205 VRB05KT TEMPO 1206/1210 FEW014CB SCT015

Observacions i pronòstics meteorològics de més de 4000 aeroports (METAR i TAF).

Les estacions disponibles són els punts grocs i vermells al mapa.

Posi el ratolí al punt desitjat per veure el nom de l'estació.

Feu clic per veure les observacions i els pronòstics meteorològics.

Per canviar el mapa: feu clic els botons verds amb una creu de color negre per apropar; al botó verd amb un guió per allunyar la imatge; o en les fletxes verdes per a mapes adjacents.


METAR-TAF: